Gure Amuitz — EASO — position and weather

sailwx.info

Track history (hours):
 
Tides and Currents Weather Stations Pressure Air Temp Water Temp Dewpoint Dewpoint Depression Visibility Wind Speed Wind Dir Waves Ship Positions

Gure Amuitz

Last reported at 2017-Oct-18 12:06 UTC. Time now 2017-Oct-19 00:08 UTC.
Position N 43°23' W 001°47'.

Length 28 m.

Type: Fishing. MMSI: 224010590.

Date/timePositionNaut miles runAvg speedWind from/ knotsBaromVisibWave heightAir tempDewpointWater temp
2017-Oct-18 12:06N 43°23' W 001°47'0 0.0
2017-Oct-18 12:01N 43°23' W 001°47'0 0.1
2017-Oct-18 11:31N 43°23' W 001°48'0 0.0
2017-Oct-18 11:01N 43°23' W 001°48'0 0.0
2017-Oct-18 10:31N 43°23' W 001°48'0 0.0
2017-Oct-18 10:01N 43°23' W 001°48'0 0.0
2017-Oct-18 09:31N 43°23' W 001°48'0 0.0
2017-Oct-18 09:01N 43°23' W 001°48'0 0.0
2017-Oct-18 08:31N 43°23' W 001°48'0 0.0
2017-Oct-18 08:01N 43°23' W 001°47'0 0.0
2017-Oct-18 07:31N 43°23' W 001°48'0 0.0
2017-Oct-18 07:01N 43°23' W 001°47'0 0.0
2017-Oct-18 06:31N 43°23' W 001°48'0 0.0
2017-Oct-18 06:01N 43°23' W 001°48'0 0.0
2017-Oct-18 05:31N 43°23' W 001°48'0 0.0
2017-Oct-18 05:01N 43°23' W 001°48'0 0.0
2017-Oct-18 04:31N 43°23' W 001°48'0 0.0
2017-Oct-18 04:00N 43°23' W 001°48'0 0.0
2017-Oct-18 03:31N 43°23' W 001°48'0 0.0
2017-Oct-18 03:01N 43°23' W 001°48'0 0.0
2017-Oct-18 02:31N 43°23' W 001°48'0 0.0
2017-Oct-18 02:01N 43°23' W 001°48'0 0.0
2017-Oct-18 01:31N 43°23' W 001°48'0 0.0
2017-Oct-18 01:01N 43°23' W 001°48'0 0.0
2017-Oct-18 00:30N 43°23' W 001°48'0 0.0
2017-Oct-18 00:01N 43°23' W 001°48'0 0.0
2017-Oct-17 23:31N 43°23' W 001°48'0 0.0
2017-Oct-17 23:01N 43°23' W 001°48'0 0.0
2017-Oct-17 22:30N 43°23' W 001°48'0 0.0
2017-Oct-17 22:00N 43°23' W 001°48'0 0.0
2017-Oct-17 21:30N 43°23' W 001°48'0 0.0
2017-Oct-17 21:01N 43°23' W 001°48'0 0.0
2017-Oct-17 20:31N 43°23' W 001°48'0 0.0
2017-Oct-17 20:01N 43°23' W 001°48'0 0.0
2017-Oct-17 19:30N 43°23' W 001°48'0 0.0
2017-Oct-17 19:01N 43°23' W 001°48'0 0.0
2017-Oct-17 18:30N 43°23' W 001°48'0 0.0
2017-Oct-17 18:00N 43°23' W 001°48'0 0.0
2017-Oct-17 17:31N 43°23' W 001°48'0 0.0
2017-Oct-17 17:01N 43°23' W 001°48'0 0.0
2017-Oct-17 16:31N 43°23' W 001°48'0 0.0
2017-Oct-17 16:01N 43°23' W 001°48'0 0.0
2017-Oct-17 15:30N 43°23' W 001°48'0 0.0
2017-Oct-17 15:01N 43°23' W 001°48'0 0.0
2017-Oct-17 14:30N 43°23' W 001°48'0 0.0
2017-Oct-17 14:01N 43°23' W 001°48'0 0.0
2017-Oct-17 13:31N 43°23' W 001°48'2 3.9
2017-Oct-17 13:00N 43°25' W 001°48'27 9.2
2017-Oct-17 10:04N 43°36' W 002°23'1 9.0
2017-Oct-17 09:58N 43°36' W 002°24'4 9.2
2017-Oct-17 09:30N 43°38' W 002°29'2 4.1
2017-Oct-17 09:00N 43°39' W 002°32'1 2.4
2017-Oct-17 08:31N 43°39' W 002°33'1 2.0
2017-Oct-17 08:01N 43°39' W 002°35'1 2.1
2017-Oct-17 07:31N 43°38' W 002°34'0 0.7
2017-Oct-17 07:00N 43°38' W 002°34'1 1.2
2017-Oct-17 06:31N 43°38' W 002°33'2 3.9
2017-Oct-17 06:01N 43°38' W 002°36'0 0.5
2017-Oct-17 05:31N 43°38' W 002°36'0 0.6
2017-Oct-17 05:01N 43°38' W 002°35'0 0.6
2017-Oct-17 04:30N 43°38' W 002°35'0 0.6
2017-Oct-17 04:01N 43°37' W 002°34'0 0.6
2017-Oct-17 03:31N 43°37' W 002°34'0 0.5
2017-Oct-17 03:01N 43°37' W 002°34'0 0.5
2017-Oct-17 02:30N 43°37' W 002°33'0 0.5
2017-Oct-17 02:01N 43°37' W 002°33'0 0.6
2017-Oct-17 01:31N 43°37' W 002°33'0 0.6
2017-Oct-17 01:01N 43°37' W 002°32'1 1.5
2017-Oct-17 00:31N 43°36' W 002°32'5 9.4
2017-Oct-17 00:01N 43°32' W 002°36'5 9.6
2017-Oct-16 23:31N 43°29' W 002°41'3 5.9
2017-Oct-16 23:01N 43°27' W 002°43'0 0.1
2017-Oct-16 22:31N 43°27' W 002°43'0 0.1
2017-Oct-16 22:01N 43°27' W 002°43'0 0.1
2017-Oct-16 21:31N 43°27' W 002°43'0 0.0
2017-Oct-16 21:00N 43°27' W 002°43'0 0.0
2017-Oct-16 20:31N 43°27' W 002°43'0 0.0
2017-Oct-16 20:00N 43°27' W 002°43'0 0.0
2017-Oct-16 19:30N 43°27' W 002°43'0 0.1
2017-Oct-16 19:01N 43°27' W 002°43'4 8.5
2017-Oct-16 18:31N 43°29' W 002°38'5 9.9
2017-Oct-16 18:01N 43°31' W 002°32'5 9.7
2017-Oct-16 17:30N 43°34' W 002°27'2 3.8
2017-Oct-16 17:01N 43°35' W 002°24'1 1.2
2017-Oct-16 16:31N 43°34' W 002°24'0 0.5
2017-Oct-16 16:01N 43°34' W 002°24'5 9.2
2017-Oct-16 15:31N 43°35' W 002°18'5 9.6
2017-Oct-16 15:01N 43°35' W 002°11'5 9.4
2017-Oct-16 14:31N 43°35' W 002°05'3 2.7
2017-Oct-16 13:31N 43°35' W 002°01'3 5.9
2017-Oct-16 13:00N 43°36' W 001°58'4 8.6
2017-Oct-16 12:31N 43°40' W 002°01'5 9.6
2017-Oct-16 12:00N 43°43' W 002°06'4 7.8
2017-Oct-16 11:31N 43°46' W 002°09'4 8.7
2017-Oct-16 11:01N 43°49' W 002°05'4 8.7
2017-Oct-16 10:31N 43°51' W 001°59'2 3.4
2017-Oct-16 10:00N 43°50' W 001°57'3 5.1
2017-Oct-16 09:31N 43°47' W 001°58'5 9.3
2017-Oct-16 09:01N 43°43' W 001°60'5 9.3
2017-Oct-16 08:31N 43°38' W 001°60'4 8.3
2017-Oct-16 08:01N 43°34' W 001°59'4 7.8
2017-Oct-16 07:30N 43°37' W 001°56'1 2.4
2017-Oct-16 07:01N 43°36' W 001°55'4 7.7
2017-Oct-16 06:31N 43°33' W 001°55'4 8.6
2017-Oct-16 06:01N 43°29' W 001°52'4 7.6
2017-Oct-16 05:31N 43°26' W 001°49'3 5.7
2017-Oct-16 05:00N 43°23' W 001°48'0 0.0
2017-Oct-16 04:30N 43°23' W 001°48'0 0.0
2017-Oct-16 04:01N 43°23' W 001°48'0 0.0
2017-Oct-16 03:30N 43°23' W 001°48'0 0.0
2017-Oct-16 03:00N 43°23' W 001°48'0 0.0
2017-Oct-16 02:30N 43°23' W 001°48'0 0.0
2017-Oct-16 02:00N 43°23' W 001°48'0 0.0
2017-Oct-16 01:31N 43°23' W 001°48'0 0.0
2017-Oct-16 01:01N 43°23' W 001°48'0 0.0
2017-Oct-16 00:31N 43°23' W 001°48'0 0.0
2017-Oct-16 00:00N 43°23' W 001°48'0 0.0
2017-Oct-15 23:31N 43°23' W 001°48'0 0.0
2017-Oct-15 23:00N 43°23' W 001°48'0 0.0
2017-Oct-15 22:31N 43°23' W 001°48'0 0.0
2017-Oct-15 22:00N 43°23' W 001°48'0 0.0
2017-Oct-15 21:30N 43°23' W 001°48'0 0.0
2017-Oct-15 21:01N 43°23' W 001°48'0 0.0
2017-Oct-15 20:31N 43°23' W 001°48'0 0.0
2017-Oct-15 20:00N 43°23' W 001°48'0 0.0
2017-Oct-15 19:31N 43°23' W 001°48'0 0.0
2017-Oct-15 19:01N 43°23' W 001°48'0 0.0
2017-Oct-15 18:31N 43°23' W 001°48'0 0.0
2017-Oct-15 18:01N 43°23' W 001°48'0 0.0
2017-Oct-15 17:30N 43°23' W 001°48'0 0.0
2017-Oct-15 17:01N 43°23' W 001°48'0 0.0
2017-Oct-15 16:30N 43°23' W 001°48'0 0.0
2017-Oct-15 16:00N 43°23' W 001°48'0 0.0
2017-Oct-15 15:31N 43°23' W 001°48'0 0.0
2017-Oct-15 15:01N 43°23' W 001°48'0 0.0
2017-Oct-15 14:00N 43°23' W 001°48'0 0.0
2017-Oct-15 13:31N 43°23' W 001°48'0 0.0
2017-Oct-15 13:01N 43°23' W 001°48'0 0.0
2017-Oct-15 12:31N 43°23' W 001°48'0 0.0
2017-Oct-15 12:01N 43°23' W 001°48'0 0.0
2017-Oct-15 11:31N 43°23' W 001°48'0 0.0
2017-Oct-15 11:00N 43°23' W 001°48'0 0.0
2017-Oct-15 10:31N 43°23' W 001°48'0 0.0
2017-Oct-15 10:01N 43°23' W 001°48'0 0.0
2017-Oct-15 09:31N 43°23' W 001°48'0 0.0
2017-Oct-15 09:00N 43°23' W 001°48'0 0.0
2017-Oct-15 08:30N 43°23' W 001°48'0 0.0
2017-Oct-15 08:01N 43°23' W 001°48'0 0.0
2017-Oct-15 07:31N 43°23' W 001°48'0 0.0
2017-Oct-15 07:00N 43°23' W 001°48'0 0.0
2017-Oct-15 06:31N 43°23' W 001°48'0 0.0
2017-Oct-15 06:01N 43°23' W 001°48'0 0.0
2017-Oct-15 05:31N 43°23' W 001°48'0 0.0
2017-Oct-15 05:00N 43°23' W 001°48'0 0.0
2017-Oct-15 04:31N 43°23' W 001°48'0 0.0
2017-Oct-15 04:01N 43°23' W 001°48'0 0.0
2017-Oct-15 03:31N 43°23' W 001°48'0 0.0
2017-Oct-15 03:00N 43°23' W 001°48'0 0.0
2017-Oct-15 02:31N 43°23' W 001°48'0 0.0
2017-Oct-15 02:01N 43°23' W 001°48'0 0.0
2017-Oct-15 01:30N 43°23' W 001°48'0 0.0
2017-Oct-15 01:00N 43°23' W 001°48'0 0.0
2017-Oct-15 00:31N 43°23' W 001°48'0 0.0
2017-Oct-15 00:01N 43°23' W 001°48'0 0.0
2017-Oct-14 23:31N 43°23' W 001°48'0 0.0
2017-Oct-14 23:01N 43°23' W 001°48'0 0.0
2017-Oct-14 22:31N 43°23' W 001°48'0 0.0
2017-Oct-14 22:01N 43°23' W 001°48'0 0.0
2017-Oct-14 21:30N 43°23' W 001°48'0 0.0
2017-Oct-14 21:00N 43°23' W 001°48'0 0.0
2017-Oct-14 20:31N 43°23' W 001°48'0 0.0
2017-Oct-14 20:01N 43°23' W 001°48'0 0.0
2017-Oct-14 19:31N 43°23' W 001°48'0 0.0
2017-Oct-14 19:01N 43°23' W 001°48'0 0.0
2017-Oct-14 18:31N 43°23' W 001°48'0 0.0
2017-Oct-14 18:01N 43°23' W 001°48'0 0.0
2017-Oct-14 17:30N 43°23' W 001°48'0 0.0
2017-Oct-14 17:01N 43°23' W 001°48'0 0.0
2017-Oct-14 16:31N 43°23' W 001°48'0 0.0
2017-Oct-14 16:01N 43°23' W 001°48'0 0.0
2017-Oct-14 15:31N 43°23' W 001°48'0 0.0
2017-Oct-14 15:01N 43°23' W 001°48'0 0.0
2017-Oct-14 14:31N 43°23' W 001°48'0 0.0
2017-Oct-14 14:01N 43°23' W 001°48'0 0.0
2017-Oct-14 13:31N 43°23' W 001°48'0 0.0
2017-Oct-14 13:00N 43°23' W 001°48'0 0.0
2017-Oct-14 12:30N 43°23' W 001°48'0 0.0
2017-Oct-14 12:00N 43°23' W 001°48'0 0.0
2017-Oct-14 11:31N 43°23' W 001°48'0 0.0
2017-Oct-14 11:00N 43°23' W 001°48'0 0.0
2017-Oct-14 10:31N 43°23' W 001°48'0 0.0
2017-Oct-14 10:01N 43°23' W 001°48'0 0.0
2017-Oct-14 09:31N 43°23' W 001°48'0 0.0
2017-Oct-14 09:01N 43°23' W 001°48'0 0.0
2017-Oct-14 08:31N 43°23' W 001°48'0 0.0
2017-Oct-14 08:01N 43°23' W 001°48'0 0.0
2017-Oct-14 07:30N 43°23' W 001°48'0 0.0
2017-Oct-14 07:00N 43°23' W 001°48'0 0.0
2017-Oct-14 06:30N 43°23' W 001°48'0 0.0
2017-Oct-14 06:00N 43°23' W 001°48'0 0.0
2017-Oct-14 05:30N 43°23' W 001°48'0 0.0
2017-Oct-14 05:00N 43°23' W 001°48'0 0.0
2017-Oct-14 04:30N 43°23' W 001°48'0 0.0
2017-Oct-14 04:01N 43°23' W 001°48'0 0.0
2017-Oct-14 03:30N 43°23' W 001°48'0 0.0
2017-Oct-14 03:01N 43°23' W 001°48'0 0.0
2017-Oct-14 02:30N 43°23' W 001°48'0 0.0
2017-Oct-14 02:00N 43°23' W 001°48'0 0.0
2017-Oct-14 01:31N 43°23' W 001°48'0 0.0
2017-Oct-14 01:01N 43°23' W 001°48'0 0.0
2017-Oct-14 00:31N 43°23' W 001°48'0 0.0
2017-Oct-14 00:01N 43°23' W 001°48'0 0.0
2017-Oct-13 23:31N 43°23' W 001°48'0 0.0
2017-Oct-13 23:01N 43°23' W 001°48'0 0.0
2017-Oct-13 22:30N 43°23' W 001°48'0 0.0
2017-Oct-13 22:01N 43°23' W 001°48'0 0.0
2017-Oct-13 21:31N 43°23' W 001°48'0 0.0
2017-Oct-13 21:01N 43°23' W 001°48'0 0.0
2017-Oct-13 20:30N 43°23' W 001°48'0 0.0
2017-Oct-13 20:01N 43°23' W 001°48'0 0.0
2017-Oct-13 19:31N 43°23' W 001°48'0 0.0
2017-Oct-13 19:00N 43°23' W 001°48'0 0.0
2017-Oct-13 18:31N 43°23' W 001°48'0 0.0
2017-Oct-13 18:00N 43°23' W 001°48'0 0.0
2017-Oct-13 17:31N 43°23' W 001°48'0 0.0
2017-Oct-13 17:01N 43°23' W 001°48'0 0.0
2017-Oct-13 16:31N 43°23' W 001°48'0 0.0
2017-Oct-13 16:00N 43°23' W 001°48'0 0.0
2017-Oct-13 15:30N 43°23' W 001°48'0 0.0
2017-Oct-13 15:01N 43°23' W 001°48'0 0.0
2017-Oct-13 14:31N 43°23' W 001°48'0 0.0
2017-Oct-13 14:01N 43°23' W 001°48'0 0.0
2017-Oct-13 13:31N 43°23' W 001°48'0 0.0
2017-Oct-13 13:01N 43°23' W 001°48'0 0.0
2017-Oct-13 12:31N 43°23' W 001°48'0 0.0
2017-Oct-13 12:01N 43°23' W 001°48'0 0.0
2017-Oct-13 11:31N 43°23' W 001°48'0 0.0
2017-Oct-13 11:01N 43°23' W 001°48'0 0.0
2017-Oct-13 10:31N 43°23' W 001°48'0 0.0
2017-Oct-13 10:01N 43°23' W 001°48'0 0.0
2017-Oct-13 09:30N 43°23' W 001°48'0 0.0
2017-Oct-13 09:00N 43°23' W 001°48'0 0.0
2017-Oct-13 08:31N 43°23' W 001°48'0 0.0
2017-Oct-13 08:00N 43°23' W 001°48'0 0.0
2017-Oct-13 07:30N 43°23' W 001°48'0 0.0
2017-Oct-13 07:01N 43°23' W 001°48'0 0.0
2017-Oct-13 06:31N 43°23' W 001°48'0 0.0
2017-Oct-13 06:01N 43°23' W 001°48'0 0.0
2017-Oct-13 05:31N 43°23' W 001°48'0 0.0
2017-Oct-13 05:01N 43°23' W 001°48'0 0.2
2017-Oct-13 04:31N 43°23' W 001°47'0 0.0
2017-Oct-13 04:01N 43°23' W 001°47'3 5.3
2017-Oct-13 03:30N 43°25' W 001°50'3 5.1
2017-Oct-13 03:01N 43°25' W 001°54'0 0.2
2017-Oct-13 02:30N 43°25' W 001°54'0 0.4
2017-Oct-13 02:01N 43°25' W 001°53'2 4.2
2017-Oct-13 01:31N 43°24' W 001°51'3 5.0
2017-Oct-13 01:01N 43°23' W 001°47'0 0.0
2017-Oct-13 00:31N 43°23' W 001°47'0 0.0
2017-Oct-13 00:01N 43°23' W 001°47'0 0.0
2017-Oct-12 23:31N 43°23' W 001°47'0 0.0
2017-Oct-12 23:01N 43°23' W 001°47'0 0.0
2017-Oct-12 22:31N 43°23' W 001°47'0 0.0
2017-Oct-12 22:01N 43°23' W 001°47'0 0.5
2017-Oct-12 21:31N 43°23' W 001°47'5 9.2
2017-Oct-12 21:01N 43°27' W 001°51'510.1
2017-Oct-12 20:31N 43°31' W 001°56'5 9.9
2017-Oct-12 20:01N 43°34' W 002°01'5 9.9
2017-Oct-12 19:31N 43°37' W 002°06'510.0
2017-Oct-12 19:01N 43°41' W 002°11'510.1
2017-Oct-12 18:31N 43°44' W 002°15'5 9.9
2017-Oct-12 18:01N 43°48' W 002°20'5 9.8
2017-Oct-12 17:31N 43°51' W 002°25'5 9.7
2017-Oct-12 17:00N 43°55' W 002°30'5 9.8
2017-Oct-12 16:30N 43°59' W 002°34'5 9.4
2017-Oct-12 16:01N 44°03' W 002°38'5 9.4
2017-Oct-12 15:30N 44°07' W 002°41'5 9.5
2017-Oct-12 15:01N 44°10' W 002°45'5 9.4
2017-Oct-12 14:31N 44°14' W 002°49'5 9.6
2017-Oct-12 14:01N 44°18' W 002°53'5 9.5
2017-Oct-12 13:31N 44°22' W 002°56'52 1.3
2017-Oct-10 22:26N 45°07' W 003°36'  
Track history (hours):
 
Tides and Currents Weather Stations Pressure Air Temp Water Temp Dewpoint Dewpoint Depression Visibility Wind Speed Wind Dir Waves Ship Positions

Gure Amuitz

Last reported at 2017-Oct-18 12:06 UTC. Time now 2017-Oct-19 00:08 UTC.
Position N 43°23' W 001°47'.

Length 28 m.

Type: Fishing. MMSI: 224010590.

Date/timePositionNaut miles runAvg speedWind from/ knotsBaromVisibWave heightAir tempDewpointWater temp
2017-Oct-18 12:06N 43°23' W 001°47'0 0.0
2017-Oct-18 12:01N 43°23' W 001°47'0 0.1
2017-Oct-18 11:31N 43°23' W 001°48'0 0.0
2017-Oct-18 11:01N 43°23' W 001°48'0 0.0
2017-Oct-18 10:31N 43°23' W 001°48'0 0.0
2017-Oct-18 10:01N 43°23' W 001°48'0 0.0
2017-Oct-18 09:31N 43°23' W 001°48'0 0.0
2017-Oct-18 09:01N 43°23' W 001°48'0 0.0
2017-Oct-18 08:31N 43°23' W 001°48'0 0.0
2017-Oct-18 08:01N 43°23' W 001°47'0 0.0
2017-Oct-18 07:31N 43°23' W 001°48'0 0.0
2017-Oct-18 07:01N 43°23' W 001°47'0 0.0
2017-Oct-18 06:31N 43°23' W 001°48'0 0.0
2017-Oct-18 06:01N 43°23' W 001°48'0 0.0
2017-Oct-18 05:31N 43°23' W 001°48'0 0.0
2017-Oct-18 05:01N 43°23' W 001°48'0 0.0
2017-Oct-18 04:31N 43°23' W 001°48'0 0.0
2017-Oct-18 04:00N 43°23' W 001°48'0 0.0
2017-Oct-18 03:31N 43°23' W 001°48'0 0.0
2017-Oct-18 03:01N 43°23' W 001°48'0 0.0
2017-Oct-18 02:31N 43°23' W 001°48'0 0.0
2017-Oct-18 02:01N 43°23' W 001°48'0 0.0
2017-Oct-18 01:31N 43°23' W 001°48'0 0.0
2017-Oct-18 01:01N 43°23' W 001°48'0 0.0
2017-Oct-18 00:30N 43°23' W 001°48'0 0.0
2017-Oct-18 00:01N 43°23' W 001°48'0 0.0
2017-Oct-17 23:31N 43°23' W 001°48'0 0.0
2017-Oct-17 23:01N 43°23' W 001°48'0 0.0
2017-Oct-17 22:30N 43°23' W 001°48'0 0.0
2017-Oct-17 22:00N 43°23' W 001°48'0 0.0
2017-Oct-17 21:30N 43°23' W 001°48'0 0.0
2017-Oct-17 21:01N 43°23' W 001°48'0 0.0
2017-Oct-17 20:31N 43°23' W 001°48'0 0.0
2017-Oct-17 20:01N 43°23' W 001°48'0 0.0
2017-Oct-17 19:30N 43°23' W 001°48'0 0.0
2017-Oct-17 19:01N 43°23' W 001°48'0 0.0
2017-Oct-17 18:30N 43°23' W 001°48'0 0.0
2017-Oct-17 18:00N 43°23' W 001°48'0 0.0
2017-Oct-17 17:31N 43°23' W 001°48'0 0.0
2017-Oct-17 17:01N 43°23' W 001°48'0 0.0
2017-Oct-17 16:31N 43°23' W 001°48'0 0.0
2017-Oct-17 16:01N 43°23' W 001°48'0 0.0
2017-Oct-17 15:30N 43°23' W 001°48'0 0.0
2017-Oct-17 15:01N 43°23' W 001°48'0 0.0
2017-Oct-17 14:30N 43°23' W 001°48'0 0.0
2017-Oct-17 14:01N 43°23' W 001°48'0 0.0
2017-Oct-17 13:31N 43°23' W 001°48'2 3.9
2017-Oct-17 13:00N 43°25' W 001°48'27 9.2
2017-Oct-17 10:04N 43°36' W 002°23'1 9.0
2017-Oct-17 09:58N 43°36' W 002°24'4 9.2
2017-Oct-17 09:30N 43°38' W 002°29'2 4.1
2017-Oct-17 09:00N 43°39' W 002°32'1 2.4
2017-Oct-17 08:31N 43°39' W 002°33'1 2.0
2017-Oct-17 08:01N 43°39' W 002°35'1 2.1
2017-Oct-17 07:31N 43°38' W 002°34'0 0.7
2017-Oct-17 07:00N 43°38' W 002°34'1 1.2
2017-Oct-17 06:31N 43°38' W 002°33'2 3.9
2017-Oct-17 06:01N 43°38' W 002°36'0 0.5
2017-Oct-17 05:31N 43°38' W 002°36'0 0.6
2017-Oct-17 05:01N 43°38' W 002°35'0 0.6
2017-Oct-17 04:30N 43°38' W 002°35'0 0.6
2017-Oct-17 04:01N 43°37' W 002°34'0 0.6
2017-Oct-17 03:31N 43°37' W 002°34'0 0.5
2017-Oct-17 03:01N 43°37' W 002°34'0 0.5
2017-Oct-17 02:30N 43°37' W 002°33'0 0.5
2017-Oct-17 02:01N 43°37' W 002°33'0 0.6
2017-Oct-17 01:31N 43°37' W 002°33'0 0.6
2017-Oct-17 01:01N 43°37' W 002°32'1 1.5
2017-Oct-17 00:31N 43°36' W 002°32'5 9.4
2017-Oct-17 00:01N 43°32' W 002°36'5 9.6
2017-Oct-16 23:31N 43°29' W 002°41'3 5.9
2017-Oct-16 23:01N 43°27' W 002°43'0 0.1
2017-Oct-16 22:31N 43°27' W 002°43'0 0.1
2017-Oct-16 22:01N 43°27' W 002°43'0 0.1
2017-Oct-16 21:31N 43°27' W 002°43'0 0.0
2017-Oct-16 21:00N 43°27' W 002°43'0 0.0
2017-Oct-16 20:31N 43°27' W 002°43'0 0.0
2017-Oct-16 20:00N 43°27' W 002°43'0 0.0
2017-Oct-16 19:30N 43°27' W 002°43'0 0.1
2017-Oct-16 19:01N 43°27' W 002°43'4 8.5
2017-Oct-16 18:31N 43°29' W 002°38'5 9.9
2017-Oct-16 18:01N 43°31' W 002°32'5 9.7
2017-Oct-16 17:30N 43°34' W 002°27'2 3.8
2017-Oct-16 17:01N 43°35' W 002°24'1 1.2
2017-Oct-16 16:31N 43°34' W 002°24'0 0.5
2017-Oct-16 16:01N 43°34' W 002°24'5 9.2
2017-Oct-16 15:31N 43°35' W 002°18'5 9.6
2017-Oct-16 15:01N 43°35' W 002°11'5 9.4
2017-Oct-16 14:31N 43°35' W 002°05'3 2.7
2017-Oct-16 13:31N 43°35' W 002°01'3 5.9
2017-Oct-16 13:00N 43°36' W 001°58'4 8.6
2017-Oct-16 12:31N 43°40' W 002°01'5 9.6
2017-Oct-16 12:00N 43°43' W 002°06'4 7.8
2017-Oct-16 11:31N 43°46' W 002°09'4 8.7
2017-Oct-16 11:01N 43°49' W 002°05'4 8.7
2017-Oct-16 10:31N 43°51' W 001°59'2 3.4
2017-Oct-16 10:00N 43°50' W 001°57'3 5.1
2017-Oct-16 09:31N 43°47' W 001°58'5 9.3
2017-Oct-16 09:01N 43°43' W 001°60'5 9.3
2017-Oct-16 08:31N 43°38' W 001°60'4 8.3
2017-Oct-16 08:01N 43°34' W 001°59'4 7.8
2017-Oct-16 07:30N 43°37' W 001°56'1 2.4
2017-Oct-16 07:01N 43°36' W 001°55'4 7.7
2017-Oct-16 06:31N 43°33' W 001°55'4 8.6
2017-Oct-16 06:01N 43°29' W 001°52'4 7.6
2017-Oct-16 05:31N 43°26' W 001°49'3 5.7
2017-Oct-16 05:00N 43°23' W 001°48'0 0.0
2017-Oct-16 04:30N 43°23' W 001°48'0 0.0
2017-Oct-16 04:01N 43°23' W 001°48'0 0.0
2017-Oct-16 03:30N 43°23' W 001°48'0 0.0
2017-Oct-16 03:00N 43°23' W 001°48'0 0.0
2017-Oct-16 02:30N 43°23' W 001°48'0 0.0
2017-Oct-16 02:00N 43°23' W 001°48'0 0.0
2017-Oct-16 01:31N 43°23' W 001°48'0 0.0
2017-Oct-16 01:01N 43°23' W 001°48'0 0.0
2017-Oct-16 00:31N 43°23' W 001°48'0 0.0
2017-Oct-16 00:00N 43°23' W 001°48'0 0.0
2017-Oct-15 23:31N 43°23' W 001°48'0 0.0
2017-Oct-15 23:00N 43°23' W 001°48'0 0.0
2017-Oct-15 22:31N 43°23' W 001°48'0 0.0
2017-Oct-15 22:00N 43°23' W 001°48'0 0.0
2017-Oct-15 21:30N 43°23' W 001°48'0 0.0
2017-Oct-15 21:01N 43°23' W 001°48'0 0.0
2017-Oct-15 20:31N 43°23' W 001°48'0 0.0
2017-Oct-15 20:00N 43°23' W 001°48'0 0.0
2017-Oct-15 19:31N 43°23' W 001°48'0 0.0
2017-Oct-15 19:01N 43°23' W 001°48'0 0.0
2017-Oct-15 18:31N 43°23' W 001°48'0 0.0
2017-Oct-15 18:01N 43°23' W 001°48'0 0.0
2017-Oct-15 17:30N 43°23' W 001°48'0 0.0
2017-Oct-15 17:01N 43°23' W 001°48'0 0.0
2017-Oct-15 16:30N 43°23' W 001°48'0 0.0
2017-Oct-15 16:00N 43°23' W 001°48'0 0.0
2017-Oct-15 15:31N 43°23' W 001°48'0 0.0
2017-Oct-15 15:01N 43°23' W 001°48'0 0.0
2017-Oct-15 14:00N 43°23' W 001°48'0 0.0
2017-Oct-15 13:31N 43°23' W 001°48'0 0.0
2017-Oct-15 13:01N 43°23' W 001°48'0 0.0
2017-Oct-15 12:31N 43°23' W 001°48'0 0.0
2017-Oct-15 12:01N 43°23' W 001°48'0 0.0
2017-Oct-15 11:31N 43°23' W 001°48'0 0.0
2017-Oct-15 11:00N 43°23' W 001°48'0 0.0
2017-Oct-15 10:31N 43°23' W 001°48'0 0.0
2017-Oct-15 10:01N 43°23' W 001°48'0 0.0
2017-Oct-15 09:31N 43°23' W 001°48'0 0.0
2017-Oct-15 09:00N 43°23' W 001°48'0 0.0
2017-Oct-15 08:30N 43°23' W 001°48'0 0.0
2017-Oct-15 08:01N 43°23' W 001°48'0 0.0
2017-Oct-15 07:31N 43°23' W 001°48'0 0.0
2017-Oct-15 07:00N 43°23' W 001°48'0 0.0
2017-Oct-15 06:31N 43°23' W 001°48'0 0.0
2017-Oct-15 06:01N 43°23' W 001°48'0 0.0
2017-Oct-15 05:31N 43°23' W 001°48'0 0.0
2017-Oct-15 05:00N 43°23' W 001°48'0 0.0
2017-Oct-15 04:31N 43°23' W 001°48'0 0.0
2017-Oct-15 04:01N 43°23' W 001°48'0 0.0
2017-Oct-15 03:31N 43°23' W 001°48'0 0.0
2017-Oct-15 03:00N 43°23' W 001°48'0 0.0
2017-Oct-15 02:31N 43°23' W 001°48'0 0.0
2017-Oct-15 02:01N 43°23' W 001°48'0 0.0
2017-Oct-15 01:30N 43°23' W 001°48'0 0.0
2017-Oct-15 01:00N 43°23' W 001°48'0 0.0
2017-Oct-15 00:31N 43°23' W 001°48'0 0.0
2017-Oct-15 00:01N 43°23' W 001°48'0 0.0
2017-Oct-14 23:31N 43°23' W 001°48'0 0.0
2017-Oct-14 23:01N 43°23' W 001°48'0 0.0
2017-Oct-14 22:31N 43°23' W 001°48'0 0.0
2017-Oct-14 22:01N 43°23' W 001°48'0 0.0
2017-Oct-14 21:30N 43°23' W 001°48'0 0.0
2017-Oct-14 21:00N 43°23' W 001°48'0 0.0
2017-Oct-14 20:31N 43°23' W 001°48'0 0.0
2017-Oct-14 20:01N 43°23' W 001°48'0 0.0
2017-Oct-14 19:31N 43°23' W 001°48'0 0.0
2017-Oct-14 19:01N 43°23' W 001°48'0 0.0
2017-Oct-14 18:31N 43°23' W 001°48'0 0.0
2017-Oct-14 18:01N 43°23' W 001°48'0 0.0
2017-Oct-14 17:30N 43°23' W 001°48'0 0.0
2017-Oct-14 17:01N 43°23' W 001°48'0 0.0
2017-Oct-14 16:31N 43°23' W 001°48'0 0.0
2017-Oct-14 16:01N 43°23' W 001°48'0 0.0
2017-Oct-14 15:31N 43°23' W 001°48'0 0.0
2017-Oct-14 15:01N 43°23' W 001°48'0 0.0
2017-Oct-14 14:31N 43°23' W 001°48'0 0.0
2017-Oct-14 14:01N 43°23' W 001°48'0 0.0
2017-Oct-14 13:31N 43°23' W 001°48'0 0.0
2017-Oct-14 13:00N 43°23' W 001°48'0 0.0
2017-Oct-14 12:30N 43°23' W 001°48'0 0.0
2017-Oct-14 12:00N 43°23' W 001°48'0 0.0
2017-Oct-14 11:31N 43°23' W 001°48'0 0.0
2017-Oct-14 11:00N 43°23' W 001°48'0 0.0
2017-Oct-14 10:31N 43°23' W 001°48'0 0.0
2017-Oct-14 10:01N 43°23' W 001°48'0 0.0
2017-Oct-14 09:31N 43°23' W 001°48'0 0.0
2017-Oct-14 09:01N 43°23' W 001°48'0 0.0
2017-Oct-14 08:31N 43°23' W 001°48'0 0.0
2017-Oct-14 08:01N 43°23' W 001°48'0 0.0
2017-Oct-14 07:30N 43°23' W 001°48'0 0.0
2017-Oct-14 07:00N 43°23' W 001°48'0 0.0
2017-Oct-14 06:30N 43°23' W 001°48'0 0.0
2017-Oct-14 06:00N 43°23' W 001°48'0 0.0
2017-Oct-14 05:30N 43°23' W 001°48'0 0.0
2017-Oct-14 05:00N 43°23' W 001°48'0 0.0
2017-Oct-14 04:30N 43°23' W 001°48'0 0.0
2017-Oct-14 04:01N 43°23' W 001°48'0 0.0
2017-Oct-14 03:30N 43°23' W 001°48'0 0.0
2017-Oct-14 03:01N 43°23' W 001°48'0 0.0
2017-Oct-14 02:30N 43°23' W 001°48'0 0.0
2017-Oct-14 02:00N 43°23' W 001°48'0 0.0
2017-Oct-14 01:31N 43°23' W 001°48'0 0.0
2017-Oct-14 01:01N 43°23' W 001°48'0 0.0
2017-Oct-14 00:31N 43°23' W 001°48'0 0.0
2017-Oct-14 00:01N 43°23' W 001°48'0 0.0
2017-Oct-13 23:31N 43°23' W 001°48'0 0.0
2017-Oct-13 23:01N 43°23' W 001°48'0 0.0
2017-Oct-13 22:30N 43°23' W 001°48'0 0.0
2017-Oct-13 22:01N 43°23' W 001°48'0 0.0
2017-Oct-13 21:31N 43°23' W 001°48'0 0.0
2017-Oct-13 21:01N 43°23' W 001°48'0 0.0
2017-Oct-13 20:30N 43°23' W 001°48'0 0.0
2017-Oct-13 20:01N 43°23' W 001°48'0 0.0
2017-Oct-13 19:31N 43°23' W 001°48'0 0.0
2017-Oct-13 19:00N 43°23' W 001°48'0 0.0
2017-Oct-13 18:31N 43°23' W 001°48'0 0.0
2017-Oct-13 18:00N 43°23' W 001°48'0 0.0
2017-Oct-13 17:31N 43°23' W 001°48'0 0.0
2017-Oct-13 17:01N 43°23' W 001°48'0 0.0
2017-Oct-13 16:31N 43°23' W 001°48'0 0.0
2017-Oct-13 16:00N 43°23' W 001°48'0 0.0
2017-Oct-13 15:30N 43°23' W 001°48'0 0.0
2017-Oct-13 15:01N 43°23' W 001°48'0 0.0
2017-Oct-13 14:31N 43°23' W 001°48'0 0.0
2017-Oct-13 14:01N 43°23' W 001°48'0 0.0
2017-Oct-13 13:31N 43°23' W 001°48'0 0.0
2017-Oct-13 13:01N 43°23' W 001°48'0 0.0
2017-Oct-13 12:31N 43°23' W 001°48'0 0.0
2017-Oct-13 12:01N 43°23' W 001°48'0 0.0
2017-Oct-13 11:31N 43°23' W 001°48'0 0.0
2017-Oct-13 11:01N 43°23' W 001°48'0 0.0
2017-Oct-13 10:31N 43°23' W 001°48'0 0.0
2017-Oct-13 10:01N 43°23' W 001°48'0 0.0
2017-Oct-13 09:30N 43°23' W 001°48'0 0.0
2017-Oct-13 09:00N 43°23' W 001°48'0 0.0
2017-Oct-13 08:31N 43°23' W 001°48'0 0.0
2017-Oct-13 08:00N 43°23' W 001°48'0 0.0
2017-Oct-13 07:30N 43°23' W 001°48'0 0.0
2017-Oct-13 07:01N 43°23' W 001°48'0 0.0
2017-Oct-13 06:31N 43°23' W 001°48'0 0.0
2017-Oct-13 06:01N 43°23' W 001°48'0 0.0
2017-Oct-13 05:31N 43°23' W 001°48'0 0.0
2017-Oct-13 05:01N 43°23' W 001°48'0 0.2
2017-Oct-13 04:31N 43°23' W 001°47'0 0.0
2017-Oct-13 04:01N 43°23' W 001°47'3 5.3
2017-Oct-13 03:30N 43°25' W 001°50'3 5.1
2017-Oct-13 03:01N 43°25' W 001°54'0 0.2
2017-Oct-13 02:30N 43°25' W 001°54'0 0.4
2017-Oct-13 02:01N 43°25' W 001°53'2 4.2
2017-Oct-13 01:31N 43°24' W 001°51'3 5.0
2017-Oct-13 01:01N 43°23' W 001°47'0 0.0
2017-Oct-13 00:31N 43°23' W 001°47'0 0.0
2017-Oct-13 00:01N 43°23' W 001°47'0 0.0
2017-Oct-12 23:31N 43°23' W 001°47'0 0.0
2017-Oct-12 23:01N 43°23' W 001°47'0 0.0
2017-Oct-12 22:31N 43°23' W 001°47'0 0.0
2017-Oct-12 22:01N 43°23' W 001°47'0 0.5
2017-Oct-12 21:31N 43°23' W 001°47'5 9.2
2017-Oct-12 21:01N 43°27' W 001°51'510.1
2017-Oct-12 20:31N 43°31' W 001°56'5 9.9
2017-Oct-12 20:01N 43°34' W 002°01'5 9.9
2017-Oct-12 19:31N 43°37' W 002°06'510.0
2017-Oct-12 19:01N 43°41' W 002°11'510.1
2017-Oct-12 18:31N 43°44' W 002°15'5 9.9
2017-Oct-12 18:01N 43°48' W 002°20'5 9.8
2017-Oct-12 17:31N 43°51' W 002°25'5 9.7
2017-Oct-12 17:00N 43°55' W 002°30'5 9.8
2017-Oct-12 16:30N 43°59' W 002°34'5 9.4
2017-Oct-12 16:01N 44°03' W 002°38'5 9.4
2017-Oct-12 15:30N 44°07' W 002°41'5 9.5
2017-Oct-12 15:01N 44°10' W 002°45'5 9.4
2017-Oct-12 14:31N 44°14' W 002°49'5 9.6
2017-Oct-12 14:01N 44°18' W 002°53'5 9.5
2017-Oct-12 13:31N 44°22' W 002°56'52 1.3
2017-Oct-10 22:26N 45°07' W 003°36'  

Dump ship's entire track history